createdAt,value
2023-01-13T00:01:30.872Z,15.50
2023-01-13T00:04:01.024Z,14.88
2023-01-13T00:06:27.885Z,14.63
2023-01-13T00:08:59.369Z,13.90
2023-01-13T00:11:26.446Z,13.98
2023-01-13T00:13:55.926Z,13.85
2023-01-13T00:16:22.550Z,14.48
2023-01-13T00:18:51.198Z,13.50
2023-01-13T00:21:22.555Z,14.48
2023-01-13T00:23:49.565Z,13.63
2023-01-13T00:26:18.912Z,13.60
2023-01-13T00:31:21.185Z,13.30
2023-01-13T00:33:53.516Z,13.23
2023-01-13T00:36:21.074Z,15.30
2023-01-13T00:38:50.442Z,13.85
2023-01-13T00:41:22.191Z,12.95
2023-01-13T00:43:51.576Z,13.43
2023-01-13T00:48:52.920Z,13.13
2023-01-13T00:51:24.284Z,13.57
2023-01-13T00:53:51.947Z,14.43
2023-01-13T00:56:34.067Z,14.50
2023-01-13T00:59:07.139Z,14.25
2023-01-13T01:01:36.138Z,15.00
2023-01-13T01:04:07.230Z,17.33
2023-01-13T01:06:36.006Z,16.80
2023-01-13T01:09:03.205Z,16.13
2023-01-13T01:11:34.515Z,16.15
2023-01-13T01:14:03.355Z,16.17
2023-01-13T01:16:33.457Z,15.48
2023-01-13T01:19:03.734Z,14.70
2023-01-13T01:21:33.255Z,14.52
2023-01-13T01:24:01.639Z,14.40
2023-01-13T01:26:31.909Z,13.52
2023-01-13T01:29:02.277Z,14.02
2023-01-13T01:31:35.474Z,13.88
2023-01-13T01:34:02.546Z,15.07
2023-01-13T01:36:34.954Z,13.05
2023-01-13T01:39:01.617Z,15.07
2023-01-13T01:41:36.881Z,16.48
2023-01-13T01:44:25.142Z,15.38
2023-01-13T01:46:52.207Z,15.95
2023-01-13T01:49:24.279Z,17.17
2023-01-13T01:52:08.811Z,16.50
2023-01-13T01:54:35.303Z,15.85
2023-01-13T01:57:01.929Z,16.33
2023-01-13T01:59:32.071Z,14.52
2023-01-13T02:01:59.092Z,15.38
2023-01-13T02:04:33.133Z,15.20
2023-01-13T02:07:04.392Z,14.93
2023-01-13T02:09:31.229Z,14.23
2023-01-13T02:12:16.204Z,16.20
2023-01-13T02:14:44.347Z,17.67
2023-01-13T02:17:33.557Z,17.67
2023-01-13T02:20:27.832Z,18.20
2023-01-13T02:23:47.038Z,18.17
2023-01-13T02:26:16.692Z,16.10
2023-01-13T02:29:16.488Z,14.93
2023-01-13T02:31:48.334Z,15.23
2023-01-13T02:34:30.030Z,15.82
2023-01-13T02:39:35.499Z,15.07
2023-01-13T02:42:51.802Z,15.13
2023-01-13T02:45:19.305Z,20.25
2023-01-13T02:47:50.628Z,19.98
2023-01-13T02:50:28.987Z,19.60
2023-01-13T02:53:02.333Z,18.60
2023-01-13T02:55:46.334Z,17.85
2023-01-13T02:58:20.653Z,17.45
2023-01-13T03:00:49.214Z,18.65
2023-01-13T03:03:15.873Z,16.90
2023-01-13T03:05:44.843Z,16.70
2023-01-13T03:08:22.744Z,14.77
2023-01-13T03:11:10.237Z,15.32
2023-01-13T03:13:55.621Z,14.43
2023-01-13T03:16:46.852Z,15.98
2023-01-13T03:20:04.362Z,15.73
2023-01-13T03:22:36.915Z,15.43
2023-01-13T03:25:18.401Z,15.82
2023-01-13T03:27:53.464Z,15.93
2023-01-13T03:30:30.888Z,15.00
2023-01-13T03:33:06.793Z,16.17
2023-01-13T03:35:56.151Z,15.40
2023-01-13T03:38:28.361Z,15.15
2023-01-13T03:40:59.627Z,14.93
2023-01-13T03:43:54.592Z,15.02
2023-01-13T03:46:41.324Z,13.63
2023-01-13T03:49:12.292Z,14.82
2023-01-13T03:51:45.584Z,14.32
2023-01-13T03:54:14.266Z,14.52
2023-01-13T03:56:54.719Z,16.13
2023-01-13T03:59:29.535Z,15.68
2023-01-13T04:02:14.175Z,14.80
2023-01-13T04:05:03.001Z,14.45
2023-01-13T04:07:44.809Z,13.60
2023-01-13T04:10:14.159Z,13.20
2023-01-13T04:13:01.039Z,15.65
2023-01-13T04:15:59.210Z,14.60
2023-01-13T04:18:27.806Z,13.65
2023-01-13T04:20:57.499Z,15.25
2023-01-13T04:23:24.651Z,14.90
2023-01-13T04:25:51.817Z,14.23
2023-01-13T04:28:21.692Z,14.32
2023-01-13T04:30:51.137Z,14.18
2023-01-13T04:33:19.514Z,13.95
2023-01-13T04:35:46.949Z,14.43
2023-01-13T04:38:16.672Z,13.63
2023-01-13T04:40:43.474Z,12.48
2023-01-13T04:43:12.438Z,13.85
2023-01-13T04:45:39.197Z,14.13
2023-01-13T04:48:09.015Z,13.93
2023-01-13T04:50:40.541Z,13.13
2023-01-13T04:53:07.489Z,12.55
2023-01-13T04:55:34.179Z,14.13
2023-01-13T04:58:10.282Z,13.23
2023-01-13T05:00:39.693Z,13.57
2023-01-13T05:05:35.529Z,12.02
2023-01-13T05:08:02.192Z,12.63
2023-01-13T05:10:28.868Z,12.48
2023-01-13T05:13:13.951Z,13.52
2023-01-13T05:16:21.295Z,12.32
2023-01-13T05:18:47.858Z,13.15
2023-01-13T05:21:34.393Z,13.48
2023-01-13T05:24:19.782Z,12.48
2023-01-13T05:26:50.898Z,13.55
2023-01-13T05:29:19.682Z,14.05
2023-01-13T05:31:48.697Z,12.45
2023-01-13T05:34:15.315Z,13.05
2023-01-13T05:36:44.147Z,13.50
2023-01-13T05:39:10.722Z,13.20
2023-01-13T05:41:55.579Z,12.85
2023-01-13T05:44:25.670Z,12.50
2023-01-13T05:46:52.277Z,12.32
2023-01-13T05:49:18.847Z,13.15
2023-01-13T05:51:45.585Z,12.95
2023-01-13T05:54:14.424Z,11.13
2023-01-13T05:56:41.050Z,11.48
2023-01-13T05:59:10.082Z,10.60
2023-01-13T06:01:37.221Z,11.50
2023-01-13T06:04:09.171Z,11.55
2023-01-13T06:06:35.732Z,11.52
2023-01-13T06:09:04.579Z,11.38
2023-01-13T06:11:33.396Z,11.00
2023-01-13T06:14:03.098Z,10.63
2023-01-13T06:16:31.945Z,11.57
2023-01-13T06:19:01.533Z,10.77
2023-01-13T06:21:32.399Z,11.10
2023-01-13T06:24:02.003Z,10.68
2023-01-13T06:26:36.221Z,10.00
2023-01-13T06:29:02.796Z,11.30
2023-01-13T06:31:33.392Z,10.98
2023-01-13T06:34:08.915Z,10.95
2023-01-13T06:36:49.764Z,10.77
2023-01-13T06:39:19.877Z,11.20
2023-01-13T06:42:08.208Z,12.70
2023-01-13T06:44:34.841Z,12.80
2023-01-13T06:47:06.253Z,14.50
2023-01-13T06:49:35.288Z,18.38
2023-01-13T06:52:01.870Z,13.77
2023-01-13T06:54:35.587Z,13.45
2023-01-13T06:57:02.592Z,13.38
2023-01-13T06:59:29.318Z,14.30
2023-01-13T07:01:56.145Z,14.93
2023-01-13T07:04:22.852Z,15.82
2023-01-13T07:06:51.640Z,14.73
2023-01-13T07:09:18.544Z,16.05
2023-01-13T07:11:45.176Z,14.00
2023-01-13T07:14:32.777Z,14.32
2023-01-13T07:16:59.377Z,14.20
2023-01-13T07:19:28.467Z,24.48
2023-01-13T07:21:59.894Z,16.00
2023-01-13T07:24:28.729Z,13.95
2023-01-13T07:26:55.298Z,14.18
2023-01-13T07:29:24.446Z,14.27
2023-01-13T07:31:53.178Z,13.65
2023-01-13T07:34:19.815Z,14.25
2023-01-13T07:36:51.418Z,13.38
2023-01-13T07:39:18.062Z,12.57
2023-01-13T07:42:03.312Z,11.95
2023-01-13T07:44:30.046Z,13.25
2023-01-13T07:46:58.883Z,12.80
2023-01-13T07:49:27.951Z,12.02
2023-01-13T07:51:56.785Z,11.35
2023-01-13T07:54:35.237Z,11.70
2023-01-13T07:57:06.607Z,12.10
2023-01-13T07:59:35.409Z,12.38
2023-01-13T08:02:04.655Z,10.25
2023-01-13T08:07:00.162Z,11.27
2023-01-13T08:09:26.761Z,10.88
2023-01-13T08:12:14.597Z,10.98
2023-01-13T08:17:10.711Z,11.25
2023-01-13T08:19:37.271Z,11.35
2023-01-13T08:22:04.030Z,11.43
2023-01-13T08:24:32.958Z,12.77
2023-01-13T08:26:59.515Z,11.00
2023-01-13T08:29:26.113Z,12.93
2023-01-13T08:31:55.177Z,13.40
2023-01-13T08:34:21.783Z,14.40
2023-01-13T08:36:49.959Z,16.35
2023-01-13T08:39:19.102Z,12.48
2023-01-13T08:41:58.493Z,10.30
2023-01-13T08:44:30.407Z,10.07
2023-01-13T08:46:57.851Z,9.90
2023-01-13T08:49:27.877Z,10.00
2023-01-13T08:51:59.380Z,10.60
2023-01-13T08:54:25.987Z,10.70
2023-01-13T08:56:57.502Z,11.75
2023-01-13T08:59:26.514Z,11.02
2023-01-13T09:01:53.193Z,11.30
2023-01-13T09:04:23.199Z,13.90
2023-01-13T09:06:52.239Z,12.52
2023-01-13T09:09:18.905Z,17.13
2023-01-13T09:12:06.922Z,22.33
2023-01-13T09:14:36.081Z,17.65
2023-01-13T09:17:07.534Z,16.02
2023-01-13T09:19:34.449Z,15.88
2023-01-13T09:22:03.944Z,16.15
2023-01-13T09:24:35.308Z,13.48
2023-01-13T09:27:07.133Z,11.73
2023-01-13T09:29:33.906Z,12.95
2023-01-13T09:32:02.567Z,11.32
2023-01-13T09:34:47.752Z,11.30
2023-01-13T09:37:16.564Z,14.18
2023-01-13T09:39:43.218Z,11.48
2023-01-13T09:42:50.341Z,12.27
2023-01-13T09:45:32.644Z,12.13
2023-01-13T09:48:25.233Z,13.02
2023-01-13T09:50:55.124Z,12.07
2023-01-13T09:53:32.336Z,15.57
2023-01-13T09:56:00.978Z,16.38
2023-01-13T09:58:30.333Z,13.02
2023-01-13T10:03:38.668Z,11.52
2023-01-13T10:06:36.551Z,13.90
2023-01-13T10:09:05.932Z,13.48
2023-01-13T10:14:31.001Z,11.52
2023-01-13T10:17:22.589Z,12.30
2023-01-13T10:19:59.739Z,13.77
2023-01-13T10:22:47.830Z,11.75
2023-01-13T10:25:27.758Z,13.98
2023-01-13T10:27:56.462Z,13.25
2023-01-13T10:30:35.071Z,13.30
2023-01-13T10:33:17.569Z,13.07
2023-01-13T10:35:57.809Z,12.10
2023-01-13T10:38:27.112Z,14.73
2023-01-13T10:43:25.817Z,12.32
2023-01-13T10:45:58.786Z,13.32
2023-01-13T10:48:36.232Z,14.45
2023-01-13T10:51:29.064Z,12.98
2023-01-13T10:54:14.733Z,11.95
2023-01-13T10:56:44.964Z,13.63
2023-01-13T10:59:24.827Z,11.68
2023-01-13T11:02:01.158Z,12.40
2023-01-13T11:04:35.110Z,19.30
2023-01-13T11:07:06.627Z,13.57
2023-01-13T11:09:33.643Z,12.20
2023-01-13T11:12:00.406Z,12.98
2023-01-13T11:14:41.928Z,14.52
2023-01-13T11:17:20.430Z,17.83
2023-01-13T11:19:53.983Z,13.75
2023-01-13T11:22:28.831Z,14.50
2023-01-13T11:24:58.919Z,13.35
2023-01-13T11:27:31.393Z,14.27
2023-01-13T11:30:01.149Z,13.48
2023-01-13T11:32:34.953Z,13.10
2023-01-13T11:35:15.421Z,15.98
2023-01-13T11:37:47.755Z,13.48
2023-01-13T11:40:25.991Z,16.35
2023-01-13T11:43:18.311Z,12.45
2023-01-13T11:45:59.726Z,14.02
2023-01-13T11:48:35.726Z,13.73
2023-01-13T11:51:16.737Z,14.70
2023-01-13T11:53:49.284Z,13.75
2023-01-13T11:56:30.457Z,13.10
2023-01-13T11:59:12.291Z,14.20
2023-01-13T12:01:44.920Z,15.27
2023-01-13T12:04:29.361Z,13.25
2023-01-13T12:07:19.236Z,13.75
2023-01-13T12:10:34.336Z,13.80
2023-01-13T12:13:07.115Z,15.02
2023-01-13T12:15:56.596Z,15.15
2023-01-13T12:18:38.318Z,15.27
2023-01-13T12:23:51.657Z,16.25
2023-01-13T12:26:18.742Z,18.58
2023-01-13T12:28:56.965Z,15.18
2023-01-13T12:31:25.134Z,24.65
2023-01-13T12:33:54.558Z,16.90
2023-01-13T12:36:33.121Z,15.35
2023-01-13T12:39:25.777Z,15.60
2023-01-13T12:42:13.602Z,15.75
2023-01-13T12:47:38.017Z,15.57
2023-01-13T12:50:22.936Z,16.98
2023-01-13T12:52:56.628Z,16.60
2023-01-13T12:55:35.208Z,17.10
2023-01-13T12:58:04.781Z,15.32
2023-01-13T13:01:00.109Z,17.63
2023-01-13T13:03:37.235Z,15.90
2023-01-13T13:06:06.245Z,17.42
2023-01-13T13:08:51.146Z,17.92
2023-01-13T13:11:40.731Z,18.75
2023-01-13T13:14:13.759Z,19.30
2023-01-13T13:16:51.156Z,18.45
2023-01-13T13:19:17.717Z,17.63
2023-01-13T13:22:11.833Z,17.92
2023-01-13T13:24:44.320Z,18.90
2023-01-13T13:27:21.938Z,16.38
2023-01-13T13:30:06.574Z,17.38
2023-01-13T13:32:41.613Z,15.77
2023-01-13T13:35:08.168Z,16.77
2023-01-13T13:38:17.817Z,16.60
2023-01-13T13:41:06.956Z,16.05
2023-01-13T13:44:19.055Z,13.82
2023-01-13T13:46:49.478Z,15.07
2023-01-13T13:49:36.473Z,15.02
2023-01-13T13:52:10.938Z,15.77
2023-01-13T13:54:44.125Z,16.17
2023-01-13T13:57:19.789Z,16.65
2023-01-13T13:59:54.112Z,14.88
2023-01-13T14:02:36.478Z,15.68
2023-01-13T14:05:30.537Z,15.50
2023-01-13T14:08:03.935Z,15.93
2023-01-13T14:10:37.352Z,15.52
2023-01-13T14:13:35.412Z,14.95
2023-01-13T14:16:07.293Z,14.48
2023-01-13T14:18:45.831Z,16.40
2023-01-13T14:21:20.357Z,15.20
2023-01-13T14:24:22.480Z,13.50
2023-01-13T14:26:53.648Z,14.02
2023-01-13T14:29:24.517Z,14.63
2023-01-13T14:31:57.680Z,13.32
2023-01-13T14:34:33.302Z,14.27
2023-01-13T14:37:01.345Z,12.55
2023-01-13T14:39:40.475Z,13.18
2023-01-13T14:42:18.991Z,14.02
2023-01-13T14:44:49.873Z,12.73
2023-01-13T14:47:23.013Z,12.75
2023-01-13T14:50:04.757Z,14.02
2023-01-13T14:52:40.270Z,12.45
2023-01-13T14:55:10.335Z,13.40
2023-01-13T14:57:41.463Z,13.25
2023-01-13T15:00:14.189Z,12.40
2023-01-13T15:02:53.566Z,12.82
2023-01-13T15:05:22.561Z,13.27
2023-01-13T15:08:14.703Z,12.93
2023-01-13T15:10:49.281Z,13.50
2023-01-13T15:13:32.255Z,12.55
2023-01-13T15:16:01.492Z,13.55
2023-01-13T15:20:57.217Z,12.80
2023-01-13T15:23:26.031Z,13.70
2023-01-13T15:25:54.998Z,15.27
2023-01-13T15:28:28.280Z,15.45
2023-01-13T15:30:58.149Z,15.55
2023-01-13T15:33:24.796Z,14.75
2023-01-13T15:35:55.385Z,14.35
2023-01-13T15:38:23.912Z,14.10
2023-01-13T15:40:55.761Z,14.82
2023-01-13T15:43:42.347Z,14.10
2023-01-13T15:46:19.997Z,14.98
2023-01-13T15:48:46.885Z,14.05
2023-01-13T15:51:24.269Z,14.13
2023-01-13T15:56:26.639Z,12.35
2023-01-13T15:58:53.594Z,13.95
2023-01-13T16:01:20.810Z,13.35
2023-01-13T16:03:47.669Z,15.45
2023-01-13T16:06:20.868Z,15.10
2023-01-13T16:08:47.728Z,13.30
2023-01-13T16:11:16.843Z,12.80
2023-01-13T16:13:45.884Z,14.10
2023-01-13T16:16:27.072Z,14.13
2023-01-13T16:18:54.480Z,14.05
2023-01-13T16:21:22.235Z,14.52
2023-01-13T16:23:49.979Z,14.18
2023-01-13T16:26:25.588Z,15.52
2023-01-13T16:28:54.549Z,14.95
2023-01-13T16:31:26.706Z,15.00
2023-01-13T16:33:56.047Z,14.80
2023-01-13T16:38:57.262Z,12.70
2023-01-13T16:41:25.101Z,13.68
2023-01-13T16:43:52.704Z,15.00
2023-01-13T16:47:09.312Z,14.85
2023-01-13T16:49:40.737Z,14.05
2023-01-13T16:52:49.219Z,13.15
2023-01-13T16:55:28.014Z,12.98
2023-01-13T16:58:07.531Z,13.40
2023-01-13T17:00:35.366Z,13.80
2023-01-13T17:03:05.193Z,14.30
2023-01-13T17:05:31.823Z,13.88
2023-01-13T17:08:07.975Z,18.80
2023-01-13T17:10:52.916Z,21.02
2023-01-13T17:13:48.589Z,14.85
2023-01-13T17:16:17.909Z,16.33
2023-01-13T17:18:48.192Z,16.77
2023-01-13T17:21:42.862Z,15.32
2023-01-13T17:24:12.398Z,12.38
2023-01-13T17:26:48.981Z,13.27
2023-01-13T17:29:22.299Z,14.05
2023-01-13T17:31:52.685Z,13.02
2023-01-13T17:34:20.268Z,14.27
2023-01-13T17:36:46.976Z,14.30
2023-01-13T17:39:19.083Z,14.05
2023-01-13T17:42:01.386Z,14.60
2023-01-13T17:44:31.004Z,13.30
2023-01-13T17:47:00.336Z,13.45
2023-01-13T17:51:53.515Z,13.60
2023-01-13T17:54:21.121Z,15.85
2023-01-13T17:56:56.481Z,14.90
2023-01-13T17:59:24.307Z,16.25
2023-01-13T18:01:53.531Z,15.63
2023-01-13T18:07:48.569Z,12.73
2023-01-13T18:10:17.476Z,13.35
2023-01-13T18:12:44.063Z,12.90
2023-01-13T18:15:12.688Z,12.18
2023-01-13T18:17:39.259Z,13.25
2023-01-13T18:20:24.711Z,12.90
2023-01-13T18:23:14.782Z,11.98
2023-01-13T18:28:50.803Z,12.40
2023-01-13T18:31:21.840Z,12.02
2023-01-13T18:33:48.358Z,12.60
2023-01-13T18:36:17.253Z,12.82
2023-01-13T18:38:46.388Z,12.30
2023-01-13T18:41:31.470Z,13.43
2023-01-13T18:44:28.888Z,12.05
2023-01-13T18:46:57.954Z,13.10
2023-01-13T18:49:26.771Z,12.32
2023-01-13T18:51:56.068Z,12.98
2023-01-13T18:56:50.157Z,11.73
2023-01-13T18:59:26.752Z,12.60
2023-01-13T19:01:53.524Z,11.88
2023-01-13T19:04:22.306Z,13.40
2023-01-13T19:06:51.921Z,12.57
2023-01-13T19:09:22.751Z,14.65
2023-01-13T19:11:50.502Z,14.30
2023-01-13T19:14:34.122Z,14.95
2023-01-13T19:17:03.612Z,13.63
2023-01-13T19:19:31.579Z,14.02
2023-01-13T19:22:03.254Z,14.00
2023-01-13T19:24:32.183Z,12.57
2023-01-13T19:26:58.901Z,11.93
2023-01-13T19:29:28.100Z,12.82
2023-01-13T19:34:26.920Z,13.23
2023-01-13T19:36:53.943Z,12.45
2023-01-13T19:39:21.590Z,14.27
2023-01-13T19:42:28.326Z,12.90
2023-01-13T19:45:25.174Z,13.25
2023-01-13T19:47:55.271Z,14.02
2023-01-13T19:51:08.561Z,13.50
2023-01-13T19:53:38.195Z,13.55
2023-01-13T19:56:10.638Z,13.90
2023-01-13T20:01:41.509Z,14.43
2023-01-13T20:04:21.961Z,15.75
2023-01-13T20:06:48.669Z,15.68
2023-01-13T20:09:23.710Z,14.30
2023-01-13T20:12:17.223Z,14.57
2023-01-13T20:14:51.645Z,14.77
2023-01-13T20:17:44.190Z,14.27
2023-01-13T20:20:16.900Z,13.60
2023-01-13T20:23:13.269Z,14.18
2023-01-13T20:25:51.713Z,16.35
2023-01-13T20:28:20.129Z,15.38
2023-01-13T20:31:27.433Z,16.20
2023-01-13T20:34:05.407Z,15.25
2023-01-13T20:36:48.809Z,15.02
2023-01-13T20:39:32.833Z,16.08
2023-01-13T20:42:18.218Z,16.95
2023-01-13T20:44:47.413Z,16.35
2023-01-13T20:47:21.832Z,14.98
2023-01-13T20:50:44.589Z,16.00
2023-01-13T20:53:11.343Z,16.20
2023-01-13T20:55:40.005Z,16.38
2023-01-13T20:58:06.766Z,14.40
2023-01-13T21:00:48.567Z,15.60
2023-01-13T21:03:24.707Z,16.48
2023-01-13T21:05:54.060Z,14.40
2023-01-13T21:08:20.797Z,15.90
2023-01-13T21:10:49.939Z,15.82
2023-01-13T21:13:35.273Z,16.67
2023-01-13T21:16:05.032Z,17.33
2023-01-13T21:18:52.807Z,16.42
2023-01-13T21:23:58.428Z,16.38
2023-01-13T21:26:25.189Z,16.33
2023-01-13T21:28:59.302Z,18.95
2023-01-13T21:31:27.158Z,17.17
2023-01-13T21:33:57.902Z,17.90
2023-01-13T21:36:25.092Z,18.33
2023-01-13T21:38:52.902Z,18.73
2023-01-13T21:41:40.041Z,22.08
2023-01-13T21:44:34.205Z,20.42
2023-01-13T21:47:22.036Z,23.85
2023-01-13T21:52:16.010Z,19.40
2023-01-13T21:55:01.324Z,19.48
2023-01-13T21:57:35.427Z,17.67
2023-01-13T22:00:02.238Z,21.05
2023-01-13T22:02:39.902Z,19.42
2023-01-13T22:05:08.597Z,17.35
2023-01-13T22:07:36.873Z,19.05
2023-01-13T22:10:07.038Z,18.95
2023-01-13T22:12:34.083Z,20.27
2023-01-13T22:15:03.622Z,18.13
2023-01-13T22:17:32.304Z,18.65
2023-01-13T22:20:03.303Z,19.38
2023-01-13T22:22:35.263Z,22.10
2023-01-13T22:25:23.461Z,21.95
2023-01-13T22:27:50.073Z,22.73
2023-01-13T22:30:22.015Z,21.88
2023-01-13T22:32:53.356Z,21.63
2023-01-13T22:35:20.829Z,22.30
2023-01-13T22:37:47.564Z,19.77
2023-01-13T22:40:17.141Z,20.15
2023-01-13T22:42:48.329Z,20.27
2023-01-13T22:45:15.326Z,22.10
2023-01-13T22:47:42.676Z,20.58
2023-01-13T22:50:13.309Z,19.90
2023-01-13T22:52:40.347Z,20.48
2023-01-13T22:55:07.644Z,20.60
2023-01-13T22:57:46.699Z,20.73
2023-01-13T23:00:15.069Z,21.48
2023-01-13T23:02:42.109Z,20.95
2023-01-13T23:05:13.907Z,20.90
2023-01-13T23:07:40.965Z,19.45
2023-01-13T23:10:07.963Z,22.50
2023-01-13T23:12:39.400Z,23.33
2023-01-13T23:15:06.564Z,22.58
2023-01-13T23:17:33.456Z,23.77
2023-01-13T23:20:03.562Z,20.75
2023-01-13T23:22:30.652Z,20.77
2023-01-13T23:24:57.673Z,19.90
2023-01-13T23:27:24.775Z,19.60
2023-01-13T23:29:51.484Z,20.00
2023-01-13T23:32:18.514Z,20.90
2023-01-13T23:34:45.517Z,21.33
2023-01-13T23:37:12.343Z,19.75
2023-01-13T23:39:39.135Z,21.65
2023-01-13T23:42:06.166Z,21.80
2023-01-13T23:44:33.234Z,22.70
2023-01-13T23:46:59.971Z,22.55
2023-01-13T23:49:26.946Z,22.13
2023-01-13T23:51:53.626Z,21.80
2023-01-13T23:54:20.643Z,22.48
2023-01-13T23:56:49.824Z,22.52
2023-01-13T23:59:16.535Z,20.60
